Time;durP1;ratioP1;P1;durP2;ratioP2;P2;SDS_P1;SDS_P2;PMS_P1;PMS_P2;Temp;Humidity;BMP_temperature;BMP_pressure;BME280_temperature;BME280_humidity;BME280_pressure;Samples;Min_cycle;Max_cycle;Signal;HPM_P1;HPM_P2
2021/11/27 00:02:28;;;;;;;3.40;1.85;;;22.30;47.10;;;;;;4930137;29;20208;-45
2021/11/27 00:04:58;;;;;;;7.00;1.63;;;22.30;47.00;;;;;;4931327;29;20214;-45
2021/11/27 00:07:29;;;;;;;5.93;1.77;;;22.30;47.00;;;;;;4929296;29;20219;-45
2021/11/27 00:10:00;;;;;;;7.00;2.35;;;22.30;47.10;;;;;;4922529;29;20648;-44
2021/11/27 00:12:31;;;;;;;13.40;2.42;;;22.30;47.30;;;;;;4931600;29;20565;-44
2021/11/27 00:15:04;;;;;;;11.05;2.22;;;22.30;47.40;;;;;;4927559;29;20880;-49
2021/11/27 00:17:36;;;;;;;10.57;1.67;;;22.30;47.60;;;;;;4932559;29;20223;-51
2021/11/27 00:20:11;;;;;;;9.90;1.77;;;22.30;47.90;;;;;;4923230;29;20699;-52
2021/11/27 00:22:42;;;;;;;13.18;2.10;;;22.30;48.10;;;;;;4931538;29;20218;-49
2021/11/27 00:25:14;;;;;;;12.35;2.05;;;22.20;48.00;;;;;;4930241;29;20199;-50
2021/11/27 00:27:46;;;;;;;9.00;1.98;;;22.20;47.80;;;;;;4934406;29;20226;-49
2021/11/27 00:30:24;;;;;;;9.75;1.92;;;22.20;47.80;;;;;;4932121;29;20195;-47
2021/11/27 00:32:55;;;;;;;8.13;1.80;;;22.20;47.60;;;;;;4919012;29;20234;-53
2021/11/27 00:35:29;;;;;;;10.85;2.45;;;22.20;47.60;;;;;;4934966;29;20304;-47
2021/11/27 00:38:01;;;;;;;4.97;1.70;;;22.20;47.50;;;;;;4933126;29;20664;-46
2021/11/27 00:40:33;;;;;;;6.35;1.60;;;22.20;47.50;;;;;;4934557;29;20219;-50
2021/11/27 00:43:04;;;;;;;7.35;1.80;;;22.20;47.50;;;;;;4933821;29;20246;-47
2021/11/27 00:45:37;;;;;;;5.25;1.80;;;22.20;47.40;;;;;;4933542;29;20226;-49
2021/11/27 00:48:10;;;;;;;9.70;2.38;;;22.20;47.40;;;;;;4932072;29;20867;-47
2021/11/27 00:50:44;;;;;;;11.73;2.10;;;22.20;47.40;;;;;;4933456;29;20610;-49
2021/11/27 00:53:15;;;;;;;4.80;1.90;;;22.20;47.30;;;;;;4933618;29;20288;-49
2021/11/27 00:55:46;;;;;;;9.70;2.20;;;22.10;47.30;;;;;;4933930;29;20235;-49
2021/11/27 00:58:18;;;;;;;5.13;1.83;;;22.10;47.20;;;;;;4933044;29;20238;-47
2021/11/27 01:00:55;;;;;;;4.85;1.60;;;22.10;47.20;;;;;;4933227;29;20687;-49
2021/11/27 01:03:30;;;;;;;6.57;1.80;;;22.10;47.20;;;;;;4935078;29;20672;-48
2021/11/27 01:06:05;;;;;;;4.90;1.85;;;22.10;47.10;;;;;;4928156;29;20223;-49
2021/11/27 01:08:37;;;;;;;5.50;1.90;;;22.10;47.10;;;;;;4923171;29;20203;-50
2021/11/27 01:11:13;;;;;;;5.22;1.70;;;22.10;47.00;;;;;;4934350;29;20294;-49
2021/11/27 01:13:46;;;;;;;3.85;1.92;;;22.10;46.90;;;;;;4932904;28;20199;-49
2021/11/27 01:16:23;;;;;;;4.03;1.90;;;22.10;46.90;;;;;;4933486;29;20231;-47
2021/11/27 01:18:54;;;;;;;4.65;1.50;;;22.10;46.90;;;;;;4933453;29;20199;-48
2021/11/27 01:21:29;;;;;;;3.38;1.48;;;22.10;46.90;;;;;;4933578;29;20266;-48
2021/11/27 01:24:03;;;;;;;5.80;1.75;;;22.10;46.90;;;;;;4934396;29;20254;-51
2021/11/27 01:26:37;;;;;;;3.28;1.60;;;22.10;46.90;;;;;;4932381;29;20226;-52
2021/11/27 01:29:09;;;;;;;4.28;1.75;;;22.10;46.80;;;;;;4929286;29;20311;-50
2021/11/27 01:31:42;;;;;;;5.25;1.83;;;22.00;46.80;;;;;;4933497;29;20499;-50
2021/11/27 01:34:13;;;;;;;3.30;1.67;;;22.00;46.80;;;;;;4933625;29;20314;-48
2021/11/27 01:36:44;;;;;;;3.03;1.60;;;22.10;46.80;;;;;;4932351;29;20227;-48
2021/11/27 01:39:15;;;;;;;3.58;1.20;;;22.00;46.70;;;;;;4934637;29;20584;-49
2021/11/27 01:41:46;;;;;;;3.78;1.60;;;22.00;46.80;;;;;;4932244;29;20204;-48
2021/11/27 01:44:17;;;;;;;3.60;1.42;;;22.00;46.70;;;;;;4930834;29;20262;-48
2021/11/27 01:46:52;;;;;;;5.70;1.73;;;22.00;46.80;;;;;;4934354;29;20223;-49
2021/11/27 01:49:24;;;;;;;5.40;1.77;;;22.00;46.70;;;;;;4932910;29;20604;-47
2021/11/27 01:51:58;;;;;;;2.55;1.30;;;22.00;46.70;;;;;;4933587;29;20203;-52
2021/11/27 01:54:29;;;;;;;3.72;1.67;;;22.00;46.70;;;;;;4925629;29;20231;-51
2021/11/27 01:57:05;;;;;;;4.05;1.58;;;22.00;46.70;;;;;;4931757;29;20216;-49
2021/11/27 01:59:41;;;;;;;2.35;1.50;;;21.90;46.60;;;;;;4935321;29;20206;-51
2021/11/27 02:02:16;;;;;;;4.35;1.30;;;22.00;46.70;;;;;;4933632;29;20282;-52
2021/11/27 02:04:47;;;;;;;3.08;1.30;;;22.00;46.60;;;;;;4932418;29;20551;-48
2021/11/27 02:07:19;;;;;;;3.47;1.52;;;21.90;46.60;;;;;;4930135;29;20368;-49
2021/11/27 02:09:50;;;;;;;2.70;1.20;;;22.00;46.50;;;;;;4934071;29;20295;-49
2021/11/27 02:12:20;;;;;;;2.97;1.38;;;22.00;47.10;;;;;;4932203;29;20207;-49
2021/11/27 02:14:51;;;;;;;2.78;1.35;;;21.90;46.50;;;;;;4930924;29;20815;-49
2021/11/27 02:17:25;;;;;;;2.70;1.40;;;22.00;46.70;;;;;;4932588;29;20215;-49
2021/11/27 02:20:00;;;;;;;2.30;1.15;;;21.90;46.60;;;;;;4927498;29;20328;-49
2021/11/27 02:22:34;;;;;;;3.60;1.27;;;21.90;46.60;;;;;;4921370;29;20191;-52
2021/11/27 02:25:06;;;;;;;2.08;1.38;;;21.90;46.60;;;;;;4933116;29;20263;-50
2021/11/27 02:27:37;;;;;;;3.90;1.52;;;21.90;46.70;;;;;;4930763;29;20302;-49
2021/11/27 02:30:08;;;;;;;2.95;1.40;;;21.90;46.70;;;;;;4931777;29;20296;-47
2021/11/27 02:32:40;;;;;;;2.38;1.17;;;21.90;46.60;;;;;;4932627;29;20203;-49
2021/11/27 02:35:12;;;;;;;2.85;1.45;;;21.90;46.60;;;;;;4931701;29;20324;-49
2021/11/27 02:37:46;;;;;;;2.00;1.30;;;21.90;46.60;;;;;;4933273;29;20299;-50
2021/11/27 02:40:18;;;;;;;1.63;1.00;;;21.90;46.60;;;;;;4931266;29;20207;-50
2021/11/27 02:42:50;;;;;;;2.05;1.35;;;21.90;46.60;;;;;;4931931;29;20877;-52
2021/11/27 02:45:21;;;;;;;3.88;1.30;;;21.90;46.60;;;;;;4928274;29;20204;-50
2021/11/27 02:47:53;;;;;;;3.53;1.55;;;21.90;46.50;;;;;;4931292;29;20219;-52
2021/11/27 02:50:24;;;;;;;3.35;1.60;;;21.90;46.40;;;;;;4928862;29;20210;-50
2021/11/27 02:52:57;;;;;;;3.05;1.58;;;21.90;46.40;;;;;;4931631;29;20604;-52
2021/11/27 02:55:28;;;;;;;1.92;1.20;;;21.90;46.40;;;;;;4931637;29;20335;-50
2021/11/27 02:57:59;;;;;;;1.20;1.05;;;21.90;46.30;;;;;;4930621;29;20230;-48
2021/11/27 03:00:30;;;;;;;2.28;1.10;;;21.90;46.40;;;;;;4932399;29;20587;-50
2021/11/27 03:03:00;;;;;;;2.50;1.10;;;21.90;46.40;;;;;;4926385;29;20200;-50
2021/11/27 03:05:31;;;;;;;3.30;1.50;;;21.90;46.40;;;;;;4929994;29;20243;-50
2021/11/27 03:08:04;;;;;;;2.20;1.27;;;21.90;46.40;;;;;;4932185;29;20694;-50
2021/11/27 03:10:35;;;;;;;3.78;1.90;;;21.90;46.50;;;;;;4929503;29;20207;-46
2021/11/27 03:13:07;;;;;;;3.17;2.40;;;21.90;47.50;;;;;;4930991;29;20203;-43
2021/11/27 03:15:41;;;;;;;2.40;1.67;;;21.90;50.10;;;;;;4931388;29;20577;-36
2021/11/27 03:18:13;;;;;;;3.50;1.70;;;21.80;51.10;;;;;;4929332;29;20206;-57
2021/11/27 03:20:43;;;;;;;5.03;1.98;;;21.70;52.20;;;;;;4931046;29;20199;-48
2021/11/27 03:23:16;;;;;;;6.80;2.10;;;21.60;51.40;;;;;;4932653;29;20200;-50
2021/11/27 03:25:47;;;;;;;9.93;2.28;;;21.60;50.90;;;;;;4930022;29;20207;-50
2021/11/27 03:28:19;;;;;;;6.53;2.30;;;21.60;50.60;;;;;;4917281;29;20278;-48
2021/11/27 03:30:50;;;;;;;12.82;3.05;;;21.60;50.60;;;;;;4931956;29;20278;-47
2021/11/27 03:33:21;;;;;;;5.68;2.20;;;21.60;50.70;;;;;;4926760;29;20973;-47
2021/11/27 03:35:51;;;;;;;6.93;2.65;;;21.60;50.30;;;;;;4939112;29;20725;-50
2021/11/27 03:38:24;;;;;;;8.73;2.30;;;21.60;50.20;;;;;;4942187;29;20203;-47
2021/11/27 03:40:55;;;;;;;8.98;2.70;;;21.60;49.90;;;;;;4942763;28;20206;-49
2021/11/27 03:43:29;;;;;;;7.50;2.33;;;21.60;49.90;;;;;;4946978;28;20806;-48
2021/11/27 03:46:00;;;;;;;10.68;2.53;;;21.60;50.00;;;;;;4941086;29;21695;-48
2021/11/27 03:48:32;;;;;;;5.55;2.10;;;21.70;50.00;;;;;;4944268;28;20217;-49
2021/11/27 03:51:05;;;;;;;3.88;2.00;;;21.70;50.00;;;;;;4946011;29;20254;-47
2021/11/27 03:53:40;;;;;;;6.70;2.33;;;21.70;50.00;;;;;;4939610;28;20298;-47
2021/11/27 03:56:13;;;;;;;3.03;1.88;;;21.70;50.00;;;;;;4942811;28;20222;-49
2021/11/27 03:58:46;;;;;;;4.88;2.08;;;21.70;49.90;;;;;;4944672;29;20223;-47
2021/11/27 04:01:19;;;;;;;7.30;2.58;;;21.70;49.90;;;;;;4936973;28;20218;-47
2021/11/27 04:03:51;;;;;;;3.75;2.38;;;21.70;49.90;;;;;;4944989;28;20767;-48
2021/11/27 04:06:22;;;;;;;5.63;2.22;;;21.70;49.90;;;;;;4943297;29;20218;-48
2021/11/27 04:08:58;;;;;;;8.93;2.42;;;21.70;49.90;;;;;;4938238;28;20210;-48
2021/11/27 04:11:29;;;;;;;4.35;2.25;;;21.70;49.90;;;;;;4945611;28;20209;-48
2021/11/27 04:14:01;;;;;;;3.17;2.00;;;21.70;49.80;;;;;;4942741;29;20194;-47
2021/11/27 04:16:33;;;;;;;4.75;2.50;;;21.80;49.70;;;;;;4940764;28;20239;-48
2021/11/27 04:19:04;;;;;;;7.13;3.33;;;21.80;49.70;;;;;;4945510;29;20295;-49
2021/11/27 04:21:35;;;;;;;9.30;4.47;;;21.80;49.60;;;;;;4942084;29;20230;-50
2021/11/27 04:24:08;;;;;;;9.35;5.53;;;21.80;49.60;;;;;;4942009;28;20773;-50
2021/11/27 04:26:39;;;;;;;10.85;6.25;;;21.80;49.50;;;;;;4946369;29;20639;-50
2021/11/27 04:29:09;;;;;;;9.80;6.88;;;21.80;49.50;;;;;;4940017;29;20730;-49
2021/11/27 04:31:40;;;;;;;11.27;6.45;;;21.80;49.40;;;;;;4940495;28;20270;-49
2021/11/27 04:34:10;;;;;;;13.45;8.27;;;21.80;49.40;;;;;;4944887;29;20568;-48
2021/11/27 04:36:41;;;;;;;12.55;8.07;;;21.80;49.40;;;;;;4939557;29;20230;-49
2021/11/27 04:39:13;;;;;;;13.25;8.38;;;21.80;49.40;;;;;;4942381;28;20254;-47
2021/11/27 04:41:44;;;;;;;15.18;8.73;;;21.90;49.40;;;;;;4945105;29;20655;-51
2021/11/27 04:44:15;;;;;;;13.95;8.48;;;21.90;49.40;;;;;;4937984;28;20282;-46
2021/11/27 04:46:45;;;;;;;10.90;7.70;;;21.90;49.40;;;;;;4943735;29;20293;-49
2021/11/27 04:49:16;;;;;;;13.70;8.65;;;21.90;49.30;;;;;;4943190;29;20191;-48
2021/11/27 04:51:47;;;;;;;10.70;7.22;;;21.90;49.20;;;;;;4939986;28;20212;-49
2021/11/27 04:54:19;;;;;;;13.15;7.82;;;21.80;48.90;;;;;;4945115;28;20868;-48
2021/11/27 04:56:50;;;;;;;11.77;7.50;;;21.80;48.80;;;;;;4942029;29;20278;-49
2021/11/27 04:59:22;;;;;;;10.82;6.90;;;21.80;48.80;;;;;;4939879;28;20202;-50
2021/11/27 05:01:52;;;;;;;11.75;7.28;;;21.80;48.80;;;;;;4946837;29;20199;-50
2021/11/27 05:04:23;;;;;;;9.90;6.75;;;21.80;48.80;;;;;;4942115;28;20199;-48
2021/11/27 05:06:54;;;;;;;9.88;6.75;;;21.80;48.70;;;;;;4944122;29;20290;-48
2021/11/27 05:09:26;;;;;;;11.60;7.15;;;21.80;48.60;;;;;;4950287;29;20195;-50
2021/11/27 05:11:57;;;;;;;10.07;6.80;;;21.80;48.60;;;;;;4942397;28;20251;-51
2021/11/27 05:14:28;;;;;;;10.23;6.80;;;21.80;48.50;;;;;;4943350;29;20200;-53
2021/11/27 05:16:58;;;;;;;10.93;6.65;;;21.80;48.40;;;;;;4948787;28;20223;-51
2021/11/27 05:19:29;;;;;;;9.32;6.25;;;21.70;48.40;;;;;;4943870;29;20262;-50
2021/11/27 05:21:59;;;;;;;9.77;6.93;;;21.70;48.40;;;;;;4946240;28;20195;-48
2021/11/27 05:24:32;;;;;;;9.35;6.53;;;21.80;48.40;;;;;;4947404;28;20278;-48
2021/11/27 05:27:02;;;;;;;11.75;6.53;;;21.70;48.40;;;;;;4941927;28;20283;-50
2021/11/27 05:29:33;;;;;;;9.93;6.35;;;21.70;48.40;;;;;;4949375;28;20199;-51
2021/11/27 05:32:05;;;;;;;9.70;4.03;;;21.70;48.40;;;;;;4945775;29;20206;-51
2021/11/27 05:34:36;;;;;;;7.78;3.40;;;21.70;48.50;;;;;;4940232;28;20298;-49
2021/11/27 05:37:08;;;;;;;5.70;3.25;;;21.70;48.70;;;;;;4948622;28;20318;-46
2021/11/27 05:39:42;;;;;;;11.00;3.53;;;21.70;48.60;;;;;;4945899;29;20195;-51
2021/11/27 05:42:14;;;;;;;5.90;3.80;;;21.60;48.60;;;;;;4944255;28;20194;-49
2021/11/27 05:44:45;;;;;;;7.65;3.60;;;21.60;48.50;;;;;;4948037;29;20256;-50
2021/11/27 05:47:16;;;;;;;9.13;3.63;;;21.60;48.50;;;;;;4943554;29;20226;-47
2021/11/27 05:49:47;;;;;;;5.57;2.65;;;21.60;48.40;;;;;;4944030;28;20741;-47
2021/11/27 05:52:18;;;;;;;3.58;2.70;;;21.60;48.70;;;;;;4949118;29;20199;-51
2021/11/27 05:54:50;;;;;;;4.78;2.58;;;21.60;48.90;;;;;;4942506;29;20195;-51
2021/11/27 05:57:21;;;;;;;4.97;2.40;;;21.60;48.80;;;;;;4944859;28;20231;-50
2021/11/27 05:59:51;;;;;;;5.40;3.00;;;21.50;48.70;;;;;;4947269;28;20206;-49
2021/11/27 06:02:22;;;;;;;4.68;2.60;;;21.50;48.50;;;;;;4941886;28;20274;-51
2021/11/27 06:04:53;;;;;;;5.25;2.97;;;21.50;48.50;;;;;;4944066;28;20214;-48
2021/11/27 06:07:24;;;;;;;5.50;3.00;;;21.50;48.50;;;;;;4947760;29;20230;-50
2021/11/27 06:09:56;;;;;;;7.18;3.50;;;21.50;48.50;;;;;;4941640;28;20619;-50
2021/11/27 06:12:27;;;;;;;6.30;3.38;;;21.50;48.60;;;;;;4948395;28;20216;-47
2021/11/27 06:14:57;;;;;;;5.35;3.67;;;21.50;48.50;;;;;;4944435;28;20199;-46
2021/11/27 06:17:28;;;;;;;5.53;3.40;;;21.50;48.50;;;;;;4941101;28;20322;-47
2021/11/27 06:19:58;;;;;;;6.00;3.60;;;21.40;49.10;;;;;;4948667;28;20208;-45
2021/11/27 06:22:29;;;;;;;5.63;3.60;;;21.40;48.40;;;;;;4944017;29;20265;-46
2021/11/27 06:25:01;;;;;;;6.18;4.15;;;21.40;48.40;;;;;;4941303;28;20199;-46
2021/11/27 06:27:32;;;;;;;5.15;4.30;;;21.40;48.40;;;;;;4947925;28;20706;-45
2021/11/27 06:30:03;;;;;;;6.25;3.78;;;21.40;48.40;;;;;;4933734;29;20202;-45
2021/11/27 06:32:34;;;;;;;6.82;4.07;;;21.40;48.40;;;;;;4944081;28;20207;-45
2021/11/27 06:35:04;;;;;;;5.80;3.88;;;21.40;48.40;;;;;;4948481;29;20202;-46
2021/11/27 06:37:35;;;;;;;5.15;3.88;;;21.40;48.40;;;;;;4942896;29;20223;-46
2021/11/27 06:40:08;;;;;;;4.68;3.83;;;21.40;48.30;;;;;;4943789;29;20262;-45
2021/11/27 06:42:39;;;;;;;4.47;2.47;;;21.40;48.40;;;;;;4945462;29;20191;-47
2021/11/27 06:45:10;;;;;;;3.28;2.38;;;21.40;48.80;;;;;;4940992;28;20883;-46
2021/11/27 06:47:41;;;;;;;8.02;3.63;;;21.40;49.10;;;;;;4945944;28;20223;-46
2021/11/27 06:50:13;;;;;;;7.40;3.97;;;21.30;49.10;;;;;;4944643;29;20207;-46
2021/11/27 06:52:44;;;;;;;7.97;4.10;;;21.30;49.20;;;;;;4939107;28;20804;-45
2021/11/27 06:55:17;;;;;;;6.60;4.13;;;21.30;49.10;;;;;;4946104;28;20207;-46
2021/11/27 06:57:48;;;;;;;8.75;4.60;;;21.30;49.10;;;;;;4943462;29;20218;-46
2021/11/27 07:00:19;;;;;;;6.55;4.65;;;21.30;49.00;;;;;;4933721;28;20206;-45
2021/11/27 07:02:49;;;;;;;8.00;4.78;;;21.30;49.00;;;;;;4946140;29;20203;-46
2021/11/27 07:05:20;;;;;;;5.00;4.10;;;21.30;49.00;;;;;;4942874;29;20207;-46
2021/11/27 07:07:51;;;;;;;5.65;4.20;;;21.30;49.00;;;;;;4944135;28;20227;-45
2021/11/27 07:10:23;;;;;;;6.13;4.30;;;21.30;49.00;;;;;;4946567;29;20207;-47
2021/11/27 07:12:54;;;;;;;4.28;3.85;;;21.20;49.00;;;;;;4940298;29;20247;-46
2021/11/27 07:15:24;;;;;;;4.50;3.88;;;21.20;48.90;;;;;;4943356;28;20204;-45
2021/11/27 07:17:55;;;;;;;5.47;3.80;;;21.20;48.80;;;;;;4947293;29;20214;-47
2021/11/27 07:20:26;;;;;;;4.95;3.65;;;21.20;48.80;;;;;;4940456;28;20198;-48
2021/11/27 07:22:57;;;;;;;4.65;3.75;;;21.20;48.90;;;;;;4944747;28;20664;-46
2021/11/27 07:25:30;;;;;;;5.40;3.97;;;21.20;48.70;;;;;;4947342;28;20203;-45
2021/11/27 07:28:01;;;;;;;5.88;4.10;;;21.20;48.70;;;;;;4940373;29;20231;-46
2021/11/27 07:30:31;;;;;;;7.03;3.40;;;21.20;48.70;;;;;;4942779;28;20207;-47
2021/11/27 07:33:02;;;;;;;4.60;3.50;;;21.20;48.70;;;;;;4941331;28;20621;-46
2021/11/27 07:35:33;;;;;;;5.45;4.00;;;21.20;48.70;;;;;;4941494;28;20215;-47
2021/11/27 07:38:04;;;;;;;4.15;3.45;;;21.20;48.80;;;;;;4947031;28;20719;-49
2021/11/27 07:40:36;;;;;;;5.20;3.60;;;21.10;48.60;;;;;;4943174;29;20593;-48
2021/11/27 07:43:07;;;;;;;7.28;3.80;;;21.10;48.60;;;;;;4941496;29;20671;-48
2021/11/27 07:45:37;;;;;;;7.05;3.83;;;21.10;48.50;;;;;;4948420;29;20207;-45
2021/11/27 07:48:08;;;;;;;5.05;3.83;;;21.10;48.50;;;;;;4941742;29;20241;-45
2021/11/27 07:50:39;;;;;;;6.03;3.75;;;21.10;48.60;;;;;;4940143;28;20295;-45
2021/11/27 07:53:09;;;;;;;5.00;3.45;;;21.10;48.60;;;;;;4946503;29;20257;-47
2021/11/27 07:55:43;;;;;;;4.78;3.42;;;21.10;48.50;;;;;;4940914;29;20655;-45
2021/11/27 07:58:14;;;;;;;6.18;3.80;;;21.00;48.50;;;;;;4943155;28;20238;-45
2021/11/27 08:00:44;;;;;;;3.63;3.15;;;21.00;48.50;;;;;;4945773;29;20199;-46
2021/11/27 08:03:15;;;;;;;4.45;3.28;;;21.00;48.50;;;;;;4928408;28;20203;-47
2021/11/27 08:05:45;;;;;;;4.32;3.58;;;21.00;48.50;;;;;;4945523;28;20206;-48
2021/11/27 08:08:16;;;;;;;4.32;3.80;;;21.00;48.50;;;;;;4944458;29;20286;-46
2021/11/27 08:10:49;;;;;;;4.15;3.30;;;21.00;48.40;;;;;;4936826;28;20203;-46
2021/11/27 08:13:19;;;;;;;3.65;3.10;;;21.00;48.40;;;;;;4945908;28;20207;-46
2021/11/27 08:15:50;;;;;;;4.20;2.85;;;21.00;48.50;;;;;;4943349;28;20203;-45
2021/11/27 08:18:20;;;;;;;3.90;3.10;;;21.00;48.50;;;;;;4937525;28;20230;-50
2021/11/27 08:20:51;;;;;;;5.05;2.88;;;21.00;48.50;;;;;;4946497;29;20269;-46
2021/11/27 08:23:24;;;;;;;4.57;3.03;;;21.00;48.40;;;;;;4942696;29;20199;-47
2021/11/27 08:26:03;;;;;;;3.88;2.95;;;21.00;48.40;;;;;;4939763;29;20206;-52
2021/11/27 08:28:33;;;;;;;3.40;2.72;;;20.90;48.40;;;;;;4944535;29;20205;-47
2021/11/27 08:31:04;;;;;;;3.60;3.17;;;20.90;48.30;;;;;;4940490;29;20198;-46
2021/11/27 08:33:35;;;;;;;5.40;3.08;;;20.90;48.30;;;;;;4941619;28;20858;-45
2021/11/27 08:36:05;;;;;;;5.00;3.25;;;20.90;48.40;;;;;;4946841;29;20270;-45
2021/11/27 08:38:36;;;;;;;3.83;3.30;;;20.90;48.30;;;;;;4942435;29;20624;-49
2021/11/27 08:41:09;;;;;;;5.32;3.05;;;20.90;48.40;;;;;;4946804;28;20211;-46
2021/11/27 08:43:41;;;;;;;3.17;2.88;;;20.90;48.30;;;;;;4950370;29;20199;-46
2021/11/27 08:46:12;;;;;;;4.10;3.00;;;20.90;48.40;;;;;;4941943;28;20206;-47
2021/11/27 08:48:43;;;;;;;4.55;3.15;;;20.80;48.20;;;;;;4948123;28;20222;-45
2021/11/27 08:51:14;;;;;;;3.05;2.67;;;20.80;48.20;;;;;;4949695;28;20285;-48
2021/11/27 08:53:45;;;;;;;3.97;2.92;;;20.80;48.20;;;;;;4943010;28;20198;-46
2021/11/27 08:56:18;;;;;;;3.03;2.50;;;20.80;48.20;;;;;;4948530;28;20212;-45
2021/11/27 08:58:50;;;;;;;3.03;2.70;;;20.80;48.20;;;;;;4947728;29;20254;-48
2021/11/27 09:01:21;;;;;;;3.85;3.00;;;20.80;48.20;;;;;;4941601;29;20667;-45
2021/11/27 09:03:52;;;;;;;3.65;2.63;;;20.80;48.20;;;;;;4949896;28;20294;-48
2021/11/27 09:06:22;;;;;;;4.95;2.80;;;20.80;48.20;;;;;;4946460;29;21021;-47
2021/11/27 09:08:54;;;;;;;3.92;2.50;;;20.80;48.20;;;;;;4944759;28;20615;-47
2021/11/27 09:11:28;;;;;;;3.70;2.60;;;20.80;48.20;;;;;;4950505;29;20872;-46
2021/11/27 09:13:59;;;;;;;3.15;2.60;;;20.70;48.20;;;;;;4943632;29;20261;-47
2021/11/27 09:16:29;;;;;;;4.93;2.85;;;20.70;48.20;;;;;;4945614;28;20281;-47
2021/11/27 09:19:00;;;;;;;4.53;2.65;;;20.70;48.20;;;;;;4949753;29;20262;-48
2021/11/27 09:21:31;;;;;;;4.28;2.58;;;20.70;48.20;;;;;;4944316;29;20191;-48
2021/11/27 09:24:01;;;;;;;3.70;2.70;;;20.70;48.20;;;;;;4945966;28;20250;-45
2021/11/27 09:26:37;;;;;;;2.65;2.42;;;20.70;48.20;;;;;;4949466;29;20230;-47
2021/11/27 09:29:09;;;;;;;5.43;2.60;;;20.70;48.20;;;;;;4941903;29;20293;-48
2021/11/27 09:31:41;;;;;;;2.63;2.38;;;20.70;48.20;;;;;;4948020;28;20238;-47
2021/11/27 09:34:12;;;;;;;3.78;1.85;;;20.70;48.20;;;;;;4947261;29;20648;-48
2021/11/27 09:36:44;;;;;;;3.20;2.55;;;20.70;48.20;;;;;;4943606;28;20282;-47
2021/11/27 09:39:15;;;;;;;3.33;2.63;;;20.70;48.20;;;;;;4948975;28;20214;-47
2021/11/27 09:41:49;;;;;;;3.80;2.58;;;20.70;48.10;;;;;;4946613;29;20195;-47
2021/11/27 09:44:20;;;;;;;3.28;2.80;;;20.60;48.10;;;;;;4941650;29;20199;-46
2021/11/27 09:46:51;;;;;;;2.97;2.70;;;20.60;48.10;;;;;;4947910;28;20235;-46
2021/11/27 09:49:23;;;;;;;6.18;2.70;;;20.60;48.10;;;;;;4945664;28;20651;-45
2021/11/27 09:51:55;;;;;;;5.50;2.88;;;20.60;48.20;;;;;;4942759;28;20202;-45
2021/11/27 09:54:26;;;;;;;8.98;2.80;;;20.70;48.40;;;;;;4949681;29;20609;-46
2021/11/27 09:56:59;;;;;;;6.15;2.47;;;20.60;48.40;;;;;;4945715;29;20230;-47
2021/11/27 09:59:29;;;;;;;4.60;2.85;;;20.60;48.50;;;;;;4943310;29;20227;-47
2021/11/27 10:02:00;;;;;;;6.22;3.05;;;20.60;48.50;;;;;;4949834;29;21951;-43
2021/11/27 10:04:33;;;;;;;8.85;2.95;;;20.60;48.70;;;;;;4944638;28;20210;-44
2021/11/27 10:07:04;;;;;;;5.35;2.70;;;20.60;49.10;;;;;;4944105;28;20222;-44
2021/11/27 10:09:35;;;;;;;6.32;3.22;;;20.60;49.20;;;;;;4948063;29;20266;-45
2021/11/27 10:12:09;;;;;;;7.20;2.92;;;20.60;49.40;;;;;;4942401;28;20243;-45
2021/11/27 10:14:41;;;;;;;5.40;3.17;;;20.60;49.30;;;;;;4944156;29;20206;-46
2021/11/27 10:17:14;;;;;;;5.05;2.85;;;20.60;49.30;;;;;;4946268;29;20231;-45
2021/11/27 10:19:57;;;;;;;9.05;2.92;;;20.60;49.20;;;;;;4942908;28;20286;-45
2021/11/27 10:22:43;;;;;;;12.07;3.10;;;20.60;49.20;;;;;;4945567;28;20258;-48
2021/11/27 10:25:31;;;;;;;7.25;3.00;;;20.60;49.10;;;;;;4947856;29;20841;-45
2021/11/27 10:28:10;;;;;;;5.60;2.67;;;20.60;49.20;;;;;;4943745;29;20227;-45
2021/11/27 10:30:51;;;;;;;5.68;3.10;;;20.60;49.10;;;;;;4943130;28;20626;-48
2021/11/27 10:33:23;;;;;;;5.05;2.83;;;20.50;49.10;;;;;;4946986;29;20271;-48
2021/11/27 10:35:59;;;;;;;3.67;2.40;;;20.50;49.00;;;;;;4942524;29;20249;-49
2021/11/27 10:38:44;;;;;;;5.20;2.85;;;20.50;49.00;;;;;;4943496;28;20223;-49
2021/11/27 10:41:16;;;;;;;3.58;2.63;;;20.50;49.00;;;;;;4949734;28;20721;-51
2021/11/27 10:44:12;;;;;;;6.22;2.60;;;20.50;48.90;;;;;;4944567;29;20269;-50
2021/11/27 10:46:43;;;;;;;4.25;2.63;;;20.50;48.90;;;;;;4928839;29;20218;-48
2021/11/27 10:49:26;;;;;;;5.20;2.92;;;20.50;48.80;;;;;;4947212;28;20203;-49
2021/11/27 10:52:11;;;;;;;5.22;2.75;;;20.50;48.80;;;;;;4943156;29;20671;-50
2021/11/27 10:54:53;;;;;;;4.70;2.38;;;20.50;48.80;;;;;;4938907;28;20675;-46
2021/11/27 10:57:35;;;;;;;3.95;2.72;;;20.50;48.80;;;;;;4943800;29;20223;-47
2021/11/27 11:00:10;;;;;;;2.55;2.05;;;20.50;48.70;;;;;;4946595;29;20199;-48
2021/11/27 11:02:42;;;;;;;4.05;2.40;;;20.50;48.70;;;;;;4939809;28;20269;-48
2021/11/27 11:05:14;;;;;;;3.85;2.20;;;20.50;48.70;;;;;;4943831;28;20210;-52
2021/11/27 11:07:54;;;;;;;2.40;2.20;;;20.40;48.60;;;;;;4946665;29;20221;-47
2021/11/27 11:10:30;;;;;;;4.72;2.53;;;20.40;48.70;;;;;;4940773;28;20195;-48
2021/11/27 11:13:03;;;;;;;3.35;2.75;;;20.40;48.60;;;;;;4945292;28;20371;-47
2021/11/27 11:15:37;;;;;;;2.63;2.10;;;20.40;48.60;;;;;;4945970;29;20202;-47
2021/11/27 11:18:17;;;;;;;3.22;2.00;;;20.40;48.60;;;;;;4940098;28;20687;-46
2021/11/27 11:20:52;;;;;;;3.28;2.63;;;20.40;48.60;;;;;;4944812;28;20228;-47
2021/11/27 11:23:25;;;;;;;2.97;2.50;;;20.40;48.60;;;;;;4944620;29;20202;-45
2021/11/27 11:26:01;;;;;;;2.92;2.17;;;20.40;48.60;;;;;;4941141;28;20211;-46
2021/11/27 11:28:33;;;;;;;3.95;1.98;;;20.30;48.60;;;;;;4946141;28;20868;-47
2021/11/27 11:31:09;;;;;;;3.00;2.05;;;20.30;48.60;;;;;;4945234;29;20271;-45
2021/11/27 11:33:43;;;;;;;3.40;2.22;;;20.30;48.50;;;;;;4938865;28;20780;-46
2021/11/27 11:36:15;;;;;;;3.65;2.67;;;20.30;48.50;;;;;;4947160;28;20293;-48
2021/11/27 11:38:47;;;;;;;2.60;2.03;;;20.30;48.50;;;;;;4945272;28;20258;-50
2021/11/27 11:41:19;;;;;;;3.28;2.42;;;20.30;48.50;;;;;;4940408;28;20203;-46
2021/11/27 11:43:51;;;;;;;3.83;2.20;;;20.30;48.50;;;;;;4947099;28;20556;-48
2021/11/27 11:46:24;;;;;;;2.70;1.98;;;20.30;48.40;;;;;;4945306;29;20214;-47
2021/11/27 11:48:56;;;;;;;2.38;1.90;;;20.30;48.40;;;;;;4937639;29;20210;-47
2021/11/27 11:51:44;;;;;;;3.15;2.15;;;20.30;48.40;;;;;;4945877;29;20632;-47
2021/11/27 11:54:15;;;;;;;2.78;2.10;;;20.30;48.40;;;;;;4942853;29;20191;-48
2021/11/27 11:56:47;;;;;;;2.72;2.20;;;20.30;48.30;;;;;;4940665;28;20266;-48
2021/11/27 11:59:27;;;;;;;3.30;2.10;;;20.30;48.40;;;;;;4945632;29;20294;-47
2021/11/27 12:02:23;;;;;;;2.55;2.20;;;20.30;48.40;;;;;;4934239;29;20199;-49
2021/11/27 12:05:14;;;;;;;2.55;1.80;;;20.30;48.40;;;;;;4930080;29;20207;-45
2021/11/27 12:07:57;;;;;;;2.58;2.17;;;20.30;48.40;;;;;;4930420;29;20238;-48
2021/11/27 12:10:29;;;;;;;2.90;1.90;;;20.30;48.40;;;;;;4931166;29;20656;-50
2021/11/27 12:13:24;;;;;;;1.75;1.63;;;20.20;48.30;;;;;;4927520;29;20211;-49
2021/11/27 12:16:06;;;;;;;3.50;2.10;;;20.20;48.30;;;;;;4928853;29;20204;-49
2021/11/27 12:18:38;;;;;;;3.35;2.00;;;20.20;48.30;;;;;;4914302;29;20231;-48
2021/11/27 12:21:16;;;;;;;2.03;1.83;;;20.20;48.40;;;;;;4922477;29;20208;-44
2021/11/27 12:23:46;;;;;;;2.05;1.75;;;20.20;48.40;;;;;;4924722;29;20203;-51
2021/11/27 12:26:25;;;;;;;2.40;1.77;;;20.20;48.40;;;;;;4929664;29;20286;-48
2021/11/27 12:29:15;;;;;;;1.98;1.50;;;20.20;48.40;;;;;;4929535;29;20250;-46
2021/11/27 12:31:48;;;;;;;2.03;1.75;;;20.10;48.40;;;;;;4927585;29;20246;-45
2021/11/27 12:34:40;;;;;;;1.50;1.40;;;20.10;48.30;;;;;;4922045;29;20267;-47
2021/11/27 12:37:30;;;;;;;2.83;1.83;;;20.10;48.40;;;;;;4924055;29;20675;-46
2021/11/27 12:40:01;;;;;;;3.85;1.70;;;20.10;48.40;;;;;;4924104;29;20204;-43
2021/11/27 12:42:36;;;;;;;2.08;1.70;;;20.20;48.40;;;;;;4922731;29;20549;-44
2021/11/27 12:45:10;;;;;;;1.73;1.42;;;20.10;48.40;;;;;;4924357;29;20736;-44
2021/11/27 12:47:42;;;;;;;2.85;1.67;;;20.10;48.40;;;;;;4926043;29;20231;-46
2021/11/27 12:50:22;;;;;;;1.70;1.38;;;20.10;48.40;;;;;;4920183;29;20593;-44
2021/11/27 12:52:54;;;;;;;2.03;1.48;;;20.10;48.40;;;;;;4925224;29;20204;-47
2021/11/27 12:55:37;;;;;;;2.95;1.60;;;20.10;48.40;;;;;;4926759;29;20263;-47
2021/11/27 12:58:41;;;;;;;2.28;1.63;;;20.10;48.50;;;;;;4925183;29;20219;-46
2021/11/27 13:01:12;;;;;;;2.08;1.58;;;20.10;48.50;;;;;;4923753;29;20203;-45
2021/11/27 13:03:43;;;;;;;2.40;1.42;;;20.10;48.40;;;;;;4925625;29;20208;-44
2021/11/27 13:06:15;;;;;;;2.38;1.42;;;20.10;48.40;;;;;;4924784;29;20200;-43
2021/11/27 13:08:49;;;;;;;1.63;1.30;;;20.10;48.40;;;;;;4931120;29;20199;-45
2021/11/27 13:11:22;;;;;;;1.55;1.45;;;20.10;48.40;;;;;;4928151;29;20199;-46
2021/11/27 13:13:53;;;;;;;1.17;1.08;;;20.00;48.40;;;;;;4930964;29;20266;-45
2021/11/27 13:16:26;;;;;;;1.85;1.58;;;20.10;48.40;;;;;;4929973;29;20223;-44